createdAt,value
2017-07-26T00:01:16.033Z,3.33
2017-07-26T00:03:44.134Z,3.30
2017-07-26T00:06:12.237Z,3.80
2017-07-26T00:08:41.129Z,4.00
2017-07-26T00:11:09.997Z,3.65
2017-07-26T00:13:38.111Z,4.65
2017-07-26T00:16:06.206Z,4.20
2017-07-26T00:18:34.452Z,3.83
2017-07-26T00:21:02.554Z,3.67
2017-07-26T00:23:30.661Z,3.80
2017-07-26T00:25:58.780Z,6.22
2017-07-26T00:28:26.880Z,4.37
2017-07-26T00:30:54.988Z,4.80
2017-07-26T00:33:23.098Z,4.40
2017-07-26T00:35:51.195Z,3.87
2017-07-26T00:38:19.441Z,4.28
2017-07-26T00:40:47.525Z,3.53
2017-07-26T00:43:15.640Z,3.42
2017-07-26T00:45:43.741Z,3.87
2017-07-26T00:48:11.856Z,3.67
2017-07-26T00:50:39.958Z,2.83
2017-07-26T00:53:08.048Z,3.30
2017-07-26T00:55:37.081Z,4.90
2017-07-26T00:58:05.169Z,3.60
2017-07-26T01:00:33.292Z,3.45
2017-07-26T01:03:02.172Z,2.78
2017-07-26T01:05:30.298Z,3.10
2017-07-26T01:07:58.387Z,3.15
2017-07-26T01:10:26.489Z,2.97
2017-07-26T01:12:54.710Z,2.87
2017-07-26T01:15:22.812Z,2.95
2017-07-26T01:17:50.953Z,3.10
2017-07-26T01:20:19.052Z,4.50
2017-07-26T01:22:47.176Z,2.60
2017-07-26T01:25:15.288Z,2.65
2017-07-26T01:27:43.545Z,2.60
2017-07-26T01:30:11.641Z,3.25
2017-07-26T01:32:39.737Z,2.50
2017-07-26T01:35:07.860Z,2.90
2017-07-26T01:37:35.965Z,2.55
2017-07-26T01:40:04.095Z,2.85
2017-07-26T01:42:32.188Z,2.60
2017-07-26T01:45:00.421Z,3.30
2017-07-26T01:47:29.285Z,2.90
2017-07-26T01:49:57.428Z,3.00
2017-07-26T01:52:25.525Z,3.28
2017-07-26T01:54:53.640Z,3.40
2017-07-26T01:57:21.767Z,3.70
2017-07-26T01:59:49.860Z,3.50
2017-07-26T02:02:18.094Z,3.20
2017-07-26T02:04:46.187Z,3.00
2017-07-26T02:07:14.336Z,3.17
2017-07-26T02:09:42.479Z,3.25
2017-07-26T02:12:11.337Z,3.22
2017-07-26T02:14:39.460Z,3.45
2017-07-26T02:17:07.557Z,3.00
2017-07-26T02:19:35.785Z,3.15
2017-07-26T02:22:04.098Z,3.42
2017-07-26T02:24:32.457Z,4.87
2017-07-26T02:27:00.601Z,3.92
2017-07-26T02:29:29.501Z,4.18
2017-07-26T02:31:57.596Z,3.83
2017-07-26T02:34:25.693Z,4.70
2017-07-26T02:36:53.921Z,4.28
2017-07-26T02:39:22.017Z,4.90
2017-07-26T02:41:50.108Z,4.90
2017-07-26T02:44:18.332Z,5.75
2017-07-26T02:46:47.232Z,4.80
2017-07-26T02:49:15.349Z,4.90
2017-07-26T02:51:43.446Z,5.00
2017-07-26T02:54:11.574Z,5.07
2017-07-26T02:56:39.669Z,4.82
2017-07-26T02:59:07.896Z,4.30
2017-07-26T03:01:36.003Z,4.18
2017-07-26T03:04:04.110Z,4.82
2017-07-26T03:06:32.233Z,5.03
2017-07-26T03:09:00.480Z,5.25
2017-07-26T03:11:29.337Z,5.00
2017-07-26T03:13:57.474Z,5.40
2017-07-26T03:16:25.561Z,5.62
2017-07-26T03:18:53.655Z,5.97
2017-07-26T03:21:21.782Z,6.47
2017-07-26T03:23:49.874Z,6.20
2017-07-26T03:26:18.106Z,7.68
2017-07-26T03:28:46.969Z,7.30
2017-07-26T03:31:15.192Z,7.72
2017-07-26T03:33:43.305Z,6.90
2017-07-26T03:36:11.400Z,7.25
2017-07-26T03:38:40.293Z,8.73
2017-07-26T03:41:08.410Z,7.20
2017-07-26T03:43:36.504Z,7.30
2017-07-26T03:46:04.986Z,8.00
2017-07-26T03:48:33.091Z,6.80
2017-07-26T03:51:01.956Z,6.25
2017-07-26T03:53:31.281Z,6.72
2017-07-26T03:56:00.175Z,6.12
2017-07-26T03:58:28.264Z,7.15
2017-07-26T04:00:56.360Z,6.78
2017-07-26T04:03:24.600Z,8.57
2017-07-26T04:05:53.500Z,8.50
2017-07-26T04:08:21.594Z,8.70
2017-07-26T04:10:49.739Z,10.13
2017-07-26T04:13:18.645Z,10.30
2017-07-26T04:15:46.763Z,10.13
2017-07-26T04:18:14.861Z,10.18
2017-07-26T04:20:43.721Z,10.25
2017-07-26T04:23:11.893Z,10.35
2017-07-26T04:25:40.220Z,11.07
2017-07-26T04:28:08.468Z,11.30
2017-07-26T04:30:36.562Z,11.10
2017-07-26T04:33:04.697Z,10.68
2017-07-26T04:35:32.909Z,11.02
2017-07-26T04:38:01.857Z,10.02
2017-07-26T04:40:29.984Z,10.57
2017-07-26T04:42:58.085Z,9.90
2017-07-26T04:45:26.213Z,10.68
2017-07-26T04:47:54.300Z,9.32
2017-07-26T04:50:22.415Z,9.45
2017-07-26T04:52:50.525Z,11.30
2017-07-26T04:55:19.532Z,10.32
2017-07-26T04:57:47.707Z,11.02
2017-07-26T05:00:16.565Z,12.73
2017-07-26T05:02:44.704Z,11.30
2017-07-26T05:05:12.821Z,13.05
2017-07-26T05:07:41.190Z,11.40
2017-07-26T05:10:09.385Z,12.18
2017-07-26T05:12:37.476Z,12.00
2017-07-26T05:15:05.580Z,10.48
2017-07-26T05:17:33.850Z,11.35
2017-07-26T05:20:02.013Z,11.00
2017-07-26T05:22:30.116Z,10.88
2017-07-26T05:24:58.233Z,13.18
2017-07-26T05:27:26.409Z,12.20
2017-07-26T05:29:54.513Z,13.57
2017-07-26T05:32:22.649Z,12.15
2017-07-26T05:34:50.749Z,13.60
2017-07-26T05:37:18.848Z,11.90
2017-07-26T05:39:46.977Z,13.27
2017-07-26T05:42:15.064Z,12.57
2017-07-26T05:44:43.308Z,12.68
2017-07-26T05:47:11.413Z,11.88
2017-07-26T05:49:39.520Z,12.00
2017-07-26T05:52:07.641Z,11.45
2017-07-26T05:54:35.740Z,10.82
2017-07-26T05:57:03.871Z,11.05
2017-07-26T05:59:31.968Z,10.70
2017-07-26T06:02:00.250Z,12.20
2017-07-26T06:04:28.364Z,11.50
2017-07-26T06:06:56.527Z,11.18
2017-07-26T06:09:25.460Z,10.13
2017-07-26T06:11:54.349Z,10.25
2017-07-26T06:14:23.453Z,11.45
2017-07-26T06:16:51.553Z,10.93
2017-07-26T06:19:19.893Z,11.25
2017-07-26T06:21:48.885Z,12.70
2017-07-26T06:24:17.124Z,12.90
2017-07-26T06:26:46.285Z,11.75
2017-07-26T06:29:14.388Z,11.65
2017-07-26T06:31:42.484Z,10.48
2017-07-26T06:34:10.621Z,11.30
2017-07-26T06:36:38.871Z,13.82
2017-07-26T06:39:06.995Z,10.48
2017-07-26T06:41:35.093Z,10.32
2017-07-26T06:44:04.288Z,10.48
2017-07-26T06:46:32.438Z,10.68
2017-07-26T06:49:00.544Z,11.02
2017-07-26T06:51:28.808Z,10.13
2017-07-26T06:53:57.680Z,12.32
2017-07-26T06:56:25.788Z,11.38
2017-07-26T06:58:53.901Z,11.50
2017-07-26T07:01:22.000Z,12.00
2017-07-26T07:03:52.124Z,11.43
2017-07-26T07:06:20.223Z,12.60
2017-07-26T07:08:48.337Z,11.70
2017-07-26T07:11:16.591Z,11.63
2017-07-26T07:13:44.681Z,13.23
2017-07-26T07:16:12.781Z,12.18
2017-07-26T07:18:41.033Z,11.68
2017-07-26T07:21:09.124Z,11.07
2017-07-26T07:23:37.293Z,10.70
2017-07-26T07:26:05.377Z,9.38
2017-07-26T07:28:34.247Z,10.13
2017-07-26T07:31:02.465Z,9.60
2017-07-26T07:33:30.565Z,9.15
2017-07-26T07:35:58.863Z,8.45
2017-07-26T07:38:26.989Z,7.35
2017-07-26T07:40:55.102Z,7.72
2017-07-26T07:43:23.240Z,8.00
2017-07-26T07:45:51.344Z,8.13
2017-07-26T07:48:19.456Z,7.97
2017-07-26T07:50:48.475Z,10.45
2017-07-26T07:53:16.576Z,9.13
2017-07-26T07:55:44.722Z,9.50
2017-07-26T07:58:12.817Z,10.98
2017-07-26T08:00:40.935Z,10.95
2017-07-26T08:03:09.882Z,9.80
2017-07-26T08:05:38.081Z,10.25
2017-07-26T08:08:06.194Z,10.98
2017-07-26T08:10:34.304Z,11.50
2017-07-26T08:13:02.620Z,10.63
2017-07-26T08:15:30.962Z,11.60
2017-07-26T08:17:59.317Z,10.90
2017-07-26T08:20:28.175Z,10.57
2017-07-26T08:22:57.172Z,12.88
2017-07-26T08:25:26.137Z,10.75
2017-07-26T08:27:54.248Z,12.93
2017-07-26T08:30:23.128Z,11.93
2017-07-26T08:32:51.200Z,10.05
2017-07-26T08:35:19.356Z,11.27
2017-07-26T08:37:47.560Z,11.20
2017-07-26T08:40:15.811Z,10.02
2017-07-26T08:42:43.935Z,10.95
2017-07-26T08:45:12.033Z,11.43
2017-07-26T08:47:40.273Z,10.35
2017-07-26T08:50:08.401Z,10.15
2017-07-26T08:52:37.410Z,10.82
2017-07-26T08:55:05.683Z,10.85
2017-07-26T08:57:34.637Z,11.02
2017-07-26T09:00:02.754Z,13.18
2017-07-26T09:02:31.573Z,11.30
2017-07-26T09:04:59.757Z,10.75
2017-07-26T09:07:27.881Z,11.25
2017-07-26T09:09:56.040Z,10.70
2017-07-26T09:12:24.152Z,12.15
2017-07-26T09:14:52.382Z,11.60
2017-07-26T09:17:20.477Z,9.85
2017-07-26T09:19:49.377Z,10.43
2017-07-26T09:22:18.255Z,9.55
2017-07-26T09:24:46.368Z,10.55
2017-07-26T09:27:14.597Z,10.25
2017-07-26T09:29:42.718Z,11.00
2017-07-26T09:32:12.061Z,11.07
2017-07-26T09:34:40.163Z,11.12
2017-07-26T09:37:08.256Z,11.23
2017-07-26T09:39:36.492Z,12.07
2017-07-26T09:42:05.355Z,12.43
2017-07-26T09:44:33.483Z,10.77
2017-07-26T09:47:01.594Z,10.55
2017-07-26T09:49:29.725Z,12.73
2017-07-26T09:51:57.817Z,10.95
2017-07-26T09:54:25.918Z,13.98
2017-07-26T09:56:54.094Z,11.75
2017-07-26T09:59:22.184Z,9.23
2017-07-26T10:01:51.096Z,11.48
2017-07-26T10:04:19.220Z,11.65
2017-07-26T10:06:47.349Z,12.27
2017-07-26T10:09:15.503Z,11.27
2017-07-26T10:11:44.357Z,11.93
2017-07-26T10:14:12.457Z,11.90
2017-07-26T10:16:40.764Z,10.40
2017-07-26T10:19:08.849Z,11.23
2017-07-26T10:21:36.956Z,11.02
2017-07-26T10:27:45.288Z,10.57
2017-07-26T10:30:13.526Z,11.73
2017-07-26T10:32:41.676Z,9.80
2017-07-26T10:35:10.595Z,11.40
2017-07-26T10:37:38.717Z,10.90
2017-07-26T10:40:06.873Z,10.30
2017-07-26T10:42:34.941Z,10.00
2017-07-26T10:45:03.084Z,10.45
2017-07-26T10:47:31.211Z,9.73
2017-07-26T10:49:59.305Z,9.68
2017-07-26T10:52:27.537Z,10.05
2017-07-26T10:54:55.634Z,10.10
2017-07-26T10:57:24.544Z,10.02
2017-07-26T10:59:52.638Z,9.50
2017-07-26T11:02:20.820Z,10.00
2017-07-26T11:04:48.945Z,10.55
2017-07-26T11:07:17.815Z,8.57
2017-07-26T11:09:46.045Z,10.38
2017-07-26T11:12:14.141Z,9.93
2017-07-26T11:14:42.270Z,10.63
2017-07-26T11:17:10.361Z,8.82
2017-07-26T11:19:38.508Z,8.80
2017-07-26T11:22:07.552Z,8.93
2017-07-26T11:24:35.651Z,10.07
2017-07-26T11:27:03.892Z,10.07
2017-07-26T11:29:32.001Z,9.00
2017-07-26T11:32:00.108Z,8.07
2017-07-26T11:34:28.201Z,9.40
2017-07-26T11:36:56.320Z,7.78
2017-07-26T11:39:24.432Z,9.15
2017-07-26T11:41:52.524Z,8.15
2017-07-26T11:44:20.769Z,8.85
2017-07-26T11:46:48.881Z,10.18
2017-07-26T11:49:22.609Z,7.80
2017-07-26T11:51:50.701Z,9.57
2017-07-26T11:54:19.552Z,9.82
2017-07-26T11:56:47.675Z,8.88
2017-07-26T11:59:15.769Z,8.77
2017-07-26T12:01:43.996Z,8.25
2017-07-26T12:04:12.084Z,9.20
2017-07-26T12:06:40.195Z,8.55
2017-07-26T12:09:08.313Z,8.75
2017-07-26T12:11:36.414Z,9.57
2017-07-26T12:14:04.641Z,9.00
2017-07-26T12:16:32.737Z,9.20
2017-07-26T12:19:00.894Z,13.57
2017-07-26T12:21:29.004Z,9.77
2017-07-26T12:23:57.893Z,9.55
2017-07-26T12:26:25.980Z,9.20
2017-07-26T12:28:54.097Z,10.65
2017-07-26T12:31:22.233Z,9.18
2017-07-26T12:33:50.380Z,11.50
2017-07-26T12:36:18.472Z,9.68
2017-07-26T12:38:46.605Z,10.05
2017-07-26T12:41:14.695Z,8.13
2017-07-26T12:43:42.789Z,7.45
2017-07-26T12:46:10.920Z,8.35
2017-07-26T12:48:39.008Z,15.43
2017-07-26T12:51:08.033Z,7.10
2017-07-26T12:53:36.132Z,7.65
2017-07-26T12:56:04.234Z,8.40
2017-07-26T12:58:33.131Z,7.72
2017-07-26T13:01:01.246Z,7.87
2017-07-26T13:03:29.387Z,7.50
2017-07-26T13:05:57.568Z,8.10
2017-07-26T13:08:25.633Z,8.60
2017-07-26T13:10:53.733Z,7.25
2017-07-26T13:13:21.991Z,7.32
2017-07-26T13:15:50.108Z,8.93
2017-07-26T13:18:18.193Z,7.93
2017-07-26T13:20:46.343Z,8.18
2017-07-26T13:23:14.450Z,7.85
2017-07-26T13:25:42.539Z,8.57
2017-07-26T13:28:10.675Z,7.85
2017-07-26T13:30:38.764Z,6.72
2017-07-26T13:33:07.005Z,7.53
2017-07-26T13:35:35.108Z,7.10
2017-07-26T13:38:03.217Z,7.70
2017-07-26T13:40:31.313Z,7.50
2017-07-26T13:42:59.484Z,6.93
2017-07-26T13:45:27.569Z,8.02
2017-07-26T13:47:55.664Z,6.93
2017-07-26T13:50:23.778Z,6.07
2017-07-26T13:52:51.861Z,6.80
2017-07-26T13:55:19.992Z,6.55
2017-07-26T13:57:48.095Z,8.40
2017-07-26T14:00:16.198Z,7.50
2017-07-26T14:02:44.408Z,6.80
2017-07-26T14:05:12.501Z,7.18
2017-07-26T14:07:40.651Z,7.15
2017-07-26T14:10:08.758Z,7.05
2017-07-26T14:12:36.896Z,8.10
2017-07-26T14:15:04.999Z,7.00
2017-07-26T14:17:33.089Z,6.97
2017-07-26T14:20:01.225Z,9.40
2017-07-26T14:22:29.315Z,6.70
2017-07-26T14:24:57.455Z,6.97
2017-07-26T14:27:25.557Z,7.95
2017-07-26T14:29:53.649Z,7.07
2017-07-26T14:32:21.786Z,6.12
2017-07-26T14:34:49.881Z,5.97
2017-07-26T14:37:17.996Z,6.50
2017-07-26T14:39:46.092Z,6.30
2017-07-26T14:42:14.242Z,5.22
2017-07-26T14:44:42.332Z,5.60
2017-07-26T14:47:10.464Z,5.93
2017-07-26T14:49:38.570Z,5.32
2017-07-26T14:52:06.664Z,4.80
2017-07-26T14:54:34.789Z,5.07
2017-07-26T14:57:02.894Z,4.85
2017-07-26T14:59:31.137Z,4.62
2017-07-26T15:01:59.233Z,4.18
2017-07-26T15:04:27.332Z,4.37
2017-07-26T15:06:55.464Z,5.03
2017-07-26T15:09:23.573Z,4.00
2017-07-26T15:11:52.459Z,4.50
2017-07-26T15:14:21.323Z,4.60
2017-07-26T15:16:49.414Z,4.28
2017-07-26T15:19:17.652Z,4.05
2017-07-26T15:21:45.752Z,8.75
2017-07-26T15:24:13.870Z,6.10
2017-07-26T15:26:41.973Z,4.28
2017-07-26T15:29:10.109Z,4.10
2017-07-26T15:31:38.218Z,3.60
2017-07-26T15:34:06.325Z,5.18
2017-07-26T15:36:34.580Z,4.37
2017-07-26T15:39:02.693Z,4.32
2017-07-26T15:41:30.790Z,4.80
2017-07-26T15:43:58.921Z,3.85
2017-07-26T15:46:27.781Z,4.53
2017-07-26T15:48:55.908Z,6.15
2017-07-26T15:51:24.062Z,4.00
2017-07-26T15:53:52.146Z,4.05
2017-07-26T15:56:20.261Z,5.30
2017-07-26T15:58:48.502Z,3.80
2017-07-26T16:01:16.600Z,4.07
2017-07-26T16:03:44.747Z,3.53
2017-07-26T16:06:12.836Z,3.80
2017-07-26T16:08:41.081Z,3.83
2017-07-26T16:11:10.309Z,3.35
2017-07-26T16:13:38.456Z,3.53
2017-07-26T16:16:06.557Z,3.53
2017-07-26T16:18:34.659Z,3.60
2017-07-26T16:21:02.798Z,3.50
2017-07-26T16:23:30.901Z,3.10
2017-07-26T16:25:58.991Z,3.47
2017-07-26T16:28:27.248Z,3.40
2017-07-26T16:30:55.333Z,5.37
2017-07-26T16:33:23.463Z,3.30
2017-07-26T16:35:51.564Z,4.18
2017-07-26T16:38:19.659Z,3.58
2017-07-26T16:40:47.778Z,3.50
2017-07-26T16:43:15.883Z,3.80
2017-07-26T16:45:44.127Z,4.20
2017-07-26T16:48:12.264Z,3.37
2017-07-26T16:50:40.360Z,3.67
2017-07-26T16:53:08.460Z,3.62
2017-07-26T16:55:36.601Z,3.60
2017-07-26T16:58:04.719Z,3.37
2017-07-26T17:00:32.828Z,3.20
2017-07-26T17:03:01.112Z,3.75
2017-07-26T17:05:29.208Z,3.72
2017-07-26T17:07:57.340Z,3.90
2017-07-26T17:10:25.452Z,3.40
2017-07-26T17:12:53.588Z,3.83
2017-07-26T17:15:21.673Z,3.37
2017-07-26T17:17:49.792Z,2.85
2017-07-26T17:20:18.025Z,3.00
2017-07-26T17:22:46.117Z,2.90
2017-07-26T17:25:14.212Z,3.30
2017-07-26T17:27:42.371Z,3.08
2017-07-26T17:30:10.485Z,3.45
2017-07-26T17:32:38.582Z,2.50
2017-07-26T17:35:06.702Z,2.75
2017-07-26T17:37:34.810Z,2.95
2017-07-26T17:40:03.064Z,2.90
2017-07-26T17:42:31.168Z,3.25
2017-07-26T17:45:00.048Z,2.42
2017-07-26T17:47:28.173Z,2.92
2017-07-26T17:49:56.294Z,4.53
2017-07-26T17:52:25.206Z,2.80
2017-07-26T17:57:23.125Z,3.22
2017-07-26T17:59:51.240Z,2.87
2017-07-26T18:02:20.120Z,2.55
2017-07-26T18:04:48.287Z,3.20
2017-07-26T18:07:16.388Z,3.42
2017-07-26T18:09:45.284Z,2.40
2017-07-26T18:12:13.393Z,2.95
2017-07-26T18:14:41.485Z,2.80
2017-07-26T18:17:09.716Z,3.20
2017-07-26T18:19:37.833Z,3.03
2017-07-26T18:22:05.981Z,4.12
2017-07-26T18:24:34.082Z,2.87
2017-07-26T18:27:02.235Z,2.55
2017-07-26T18:29:30.337Z,2.80
2017-07-26T18:31:58.430Z,4.40
2017-07-26T18:34:27.446Z,3.22
2017-07-26T18:36:55.544Z,3.20
2017-07-26T18:39:23.665Z,3.35
2017-07-26T18:41:51.770Z,3.62
2017-07-26T18:44:19.904Z,3.37
2017-07-26T18:46:48.798Z,4.65
2017-07-26T18:49:17.834Z,2.97
2017-07-26T18:51:45.942Z,5.32
2017-07-26T18:54:14.056Z,3.97
2017-07-26T18:56:42.185Z,3.25
2017-07-26T18:59:10.303Z,4.68
2017-07-26T19:01:38.417Z,3.30
2017-07-26T19:04:06.562Z,3.53
2017-07-26T19:06:34.706Z,4.22
2017-07-26T19:09:03.576Z,3.90
2017-07-26T19:11:32.930Z,3.62
2017-07-26T19:14:01.031Z,3.65
2017-07-26T19:16:29.145Z,3.75
2017-07-26T19:18:57.273Z,3.85
2017-07-26T19:21:25.376Z,3.72
2017-07-26T19:23:55.592Z,5.07
2017-07-26T19:26:23.694Z,4.20
2017-07-26T19:28:51.854Z,4.15
2017-07-26T19:31:19.944Z,5.55
2017-07-26T19:33:48.073Z,5.45
2017-07-26T19:36:16.161Z,4.62
2017-07-26T19:38:45.028Z,4.40
2017-07-26T19:41:13.157Z,4.70
2017-07-26T19:43:41.255Z,4.10
2017-07-26T19:46:09.364Z,4.40
2017-07-26T19:48:37.604Z,4.72
2017-07-26T19:51:05.755Z,4.20
2017-07-26T19:53:33.860Z,4.62
2017-07-26T19:56:01.956Z,5.03
2017-07-26T19:58:30.073Z,4.60
2017-07-26T20:00:58.169Z,4.80
2017-07-26T20:03:26.388Z,4.95
2017-07-26T20:05:54.497Z,4.90
2017-07-26T20:08:22.591Z,4.40
2017-07-26T20:10:50.726Z,4.40
2017-07-26T20:13:18.829Z,4.30
2017-07-26T20:15:46.988Z,4.82
2017-07-26T20:18:15.061Z,4.68
2017-07-26T20:20:43.176Z,4.40
2017-07-26T20:23:11.408Z,4.50
2017-07-26T20:25:39.501Z,5.37
2017-07-26T20:28:07.627Z,5.22
2017-07-26T20:30:35.746Z,5.10
2017-07-26T20:33:03.872Z,4.90
2017-07-26T20:35:31.966Z,4.68
2017-07-26T20:38:00.076Z,4.60
2017-07-26T20:40:28.316Z,5.45
2017-07-26T20:42:56.424Z,4.60
2017-07-26T20:45:24.573Z,5.37
2017-07-26T20:47:52.662Z,5.35
2017-07-26T20:50:20.802Z,5.90
2017-07-26T20:52:48.896Z,5.03
2017-07-26T20:55:17.158Z,4.53
2017-07-26T20:57:45.276Z,4.40
2017-07-26T21:00:13.361Z,5.32
2017-07-26T21:02:42.245Z,5.25
2017-07-26T21:05:11.115Z,5.28
2017-07-26T21:07:39.260Z,4.68
2017-07-26T21:10:07.394Z,4.80
2017-07-26T21:12:35.650Z,5.03
2017-07-26T21:15:04.515Z,5.07
2017-07-26T21:17:32.644Z,4.40
2017-07-26T21:20:00.743Z,5.70
2017-07-26T21:22:28.852Z,5.30
2017-07-26T21:24:56.996Z,5.57
2017-07-26T21:27:25.102Z,5.35
2017-07-26T21:29:54.118Z,5.75
2017-07-26T21:32:22.215Z,4.93
2017-07-26T21:34:50.317Z,5.68
2017-07-26T21:37:18.452Z,5.70
2017-07-26T21:39:46.580Z,5.65
2017-07-26T21:42:14.677Z,5.70
2017-07-26T21:44:42.820Z,5.65
2017-07-26T21:47:10.917Z,5.90
2017-07-26T21:49:39.029Z,5.55
2017-07-26T21:52:07.282Z,5.57
2017-07-26T21:54:35.398Z,5.93
2017-07-26T21:57:03.527Z,5.22
2017-07-26T21:59:31.634Z,5.12
2017-07-26T22:01:59.717Z,7.22
2017-07-26T22:04:27.862Z,5.60
2017-07-26T22:06:55.964Z,4.80
2017-07-26T22:09:24.204Z,5.40
2017-07-26T22:11:52.313Z,5.97
2017-07-26T22:14:20.433Z,5.30
2017-07-26T22:16:48.540Z,6.20
2017-07-26T22:19:16.665Z,4.75
2017-07-26T22:21:44.764Z,6.95
2017-07-26T22:24:13.001Z,5.37
2017-07-26T22:26:41.133Z,5.68
2017-07-26T22:29:09.385Z,5.65
2017-07-26T22:31:37.472Z,5.55
2017-07-26T22:34:05.573Z,5.95
2017-07-26T22:36:33.701Z,5.87
2017-07-26T22:39:01.802Z,5.70
2017-07-26T22:41:29.940Z,6.12
2017-07-26T22:43:58.027Z,6.07
2017-07-26T22:46:26.122Z,5.70
2017-07-26T22:48:54.349Z,5.72
2017-07-26T22:51:22.455Z,6.03
2017-07-26T22:53:50.579Z,5.20
2017-07-26T22:56:19.423Z,5.10
2017-07-26T22:58:47.520Z,8.13
2017-07-26T23:01:15.658Z,8.95
2017-07-26T23:03:43.765Z,5.50
2017-07-26T23:06:12.017Z,7.28
2017-07-26T23:08:40.102Z,5.65
2017-07-26T23:11:08.241Z,5.18
2017-07-26T23:13:36.329Z,6.07
2017-07-26T23:16:04.425Z,6.50
2017-07-26T23:18:32.652Z,5.18
2017-07-26T23:21:00.743Z,5.97
2017-07-26T23:23:28.869Z,5.40
2017-07-26T23:25:56.956Z,5.62
2017-07-26T23:28:25.094Z,5.30
2017-07-26T23:30:53.192Z,5.40
2017-07-26T23:33:21.297Z,6.22
2017-07-26T23:35:49.529Z,5.68
2017-07-26T23:38:17.615Z,7.43
2017-07-26T23:40:45.708Z,5.65
2017-07-26T23:43:13.832Z,6.25
2017-07-26T23:45:41.945Z,6.60
2017-07-26T23:48:10.060Z,5.80
2017-07-26T23:50:38.189Z,6.12
2017-07-26T23:53:06.281Z,6.80
2017-07-26T23:55:34.512Z,6.20
2017-07-26T23:58:03.371Z,6.50
